Latest Weather Observations for Geraldton Airport

IDW60801

Issued at 2:33 pm WST Tuesday 23 May 2017 (issued every 30 minutes, with the page automatically refreshed every 10 minutes)

About weather observations | Map of weather stations | Latest weather observations for WA | Other Formats
Station Details ID: 008315 Name: GERALDTON AIRPORT Lat: -28.80 Lon: 114.70 Height: 29.7 m
Data from the previous 72 hours. | See also: Recent months at Geraldton Airport
Date/Time
WST
Temp
°C
App
Temp
°C
Dew
Point
°C
Rel
Hum
%
Delta-T
°C
Wind Press
QNH
hPa
Press
MSL
hPa
Rain since
9am
mm
Dir  Spd
km/h
Gust
km/h
Spd
kts
Gust
kts
23/02:30pm 21.3 17.3 8.1 42 6.9 SSW 19 24 10 13 1020.3 - 0.0
23/02:00pm 21.9 19.8 6.6 37 7.8 NE 7 17 4 9 1020.6 - 0.0
23/01:30pm 21.5 20.5 7.5 40 7.2 WSW 2 7 1 4 1021.1 - 0.0
23/01:00pm 20.9 18.0 6.7 39 7.2 SSE 11 17 6 9 1021.5 - 0.0
23/12:30pm 21.0 19.2 7.1 40 7.1 NE 6 15 3 8 1022.0 - 0.0
23/12:00pm 20.4 17.5 6.7 41 6.9 ESE 11 15 6 8 1022.6 1022.6 0.0
23/11:30am 20.1 17.0 7.3 43 6.5 ENE 13 19 7 10 1023.1 - 0.0
23/11:00am 20.0 16.4 8.4 47 6.0 NE 17 20 9 11 1023.4 - 0.0
23/10:30am 18.9 15.2 9.4 54 5.0 ENE 19 24 10 13 1023.8 - 0.0
23/10:00am 17.9 14.2 10.0 60 4.2 ENE 20 24 11 13 1024.0 - 0.0
23/09:30am 16.0 14.4 11.6 75 2.4 NNE 11 15 6 8 1024.1 - 0.0
23/09:00am 14.6 12.2 11.3 80 1.8 NNE 15 20 8 11 1024.0 1024.0 0.0
23/08:30am 13.3 10.7 10.6 84 1.4 NNE 15 19 8 10 1023.6 - 0.0
23/08:00am 11.9 8.7 10.1 89 0.9 NNE 17 19 9 10 1023.3 - 0.0
23/07:30am 10.6 7.6 9.1 90 0.7 NNE 15 17 8 9 1023.2 - 0.0
23/07:00am 10.1 7.4 8.9 92 0.6 NE 13 15 7 8 1023.0 - 0.0
23/06:30am 10.3 7.6 8.9 91 0.7 NE 13 17 7 9 1022.8 - 0.0
23/06:00am 10.4 6.9 8.8 90 0.8 NNE 17 19 9 10 1022.6 1022.6 0.0
23/05:30am 10.4 6.6 9.0 91 0.7 NE 19 20 10 11 1022.3 - 0.0
23/05:00am 10.4 7.3 9.0 91 0.7 NE 15 19 8 10 1022.3 - 0.0
23/04:30am 10.2 7.9 9.0 92 0.6 NE 11 15 6 8 1022.4 - 0.0
23/04:00am 10.6 7.5 9.0 90 0.8 NNE 15 19 8 10 1022.3 - 0.0
23/03:30am 10.9 7.1 9.1 89 0.9 NNE 19 20 10 11 1022.2 - 0.0
23/03:00am 10.7 8.0 9.1 90 0.8 NNE 13 13 7 7 1022.4 1022.4 0.0
23/02:30am 10.7 8.4 9.1 90 0.8 NNE 11 13 6 7 1022.2 - 0.0
23/02:00am 10.8 8.1 9.1 89 0.8 NNE 13 15 7 8 1022.2 - 0.0
23/01:30am 10.7 7.7 9.3 91 0.7 NNE 15 15 8 8 1022.0 - 0.0
23/01:00am 10.6 8.4 9.2 91 0.7 NE 11 13 6 7 1022.2 - 0.0
23/12:30am 10.7 8.6 9.6 93 0.6 NNE 11 13 6 7 1022.3 - 0.0
23/12:00am 11.0 8.5 9.8 92 0.6 NNE 13 13 7 7 1022.5 1022.5 0.0
 
Date/Time
WST
Temp
°C
App
Temp
°C
Dew
Point
°C
Rel
Hum
%
Delta-T
°C
Wind Press
QNH
hPa
Press
MSL
hPa
Rain since
9am
mm
Dir  Spd
km/h
Gust
km/h
Spd
kts
Gust
kts
22/11:30pm 11.0 8.9 9.6 91 0.7 NNE 11 13 6 7 1022.9 - 0.0
22/11:00pm 11.0 9.2 9.5 90 0.8 NE 9 11 5 6 1023.2 - 0.0
22/10:30pm 11.5 11.5 9.9 90 0.8 CALM 0 0 0 0 1023.0 - 0.0
22/10:00pm 11.4 11.4 9.9 90 0.8 CALM 0 0 0 0 1022.8 - 0.0
22/09:30pm 12.3 11.1 10.2 87 1.1 E 7 9 4 5 1022.8 - 0.0
22/09:00pm 12.4 11.5 10.5 88 1.0 E 6 6 3 3 1022.7 1022.7 0.0
22/08:30pm 13.0 12.5 10.9 87 1.1 ESE 4 6 2 3 1022.5 - 0.0
22/08:00pm 13.1 13.4 10.8 86 1.2 CALM 0 4 0 2 1022.4 - 0.0
22/07:30pm 13.3 11.9 10.8 85 1.3 ESE 9 9 5 5 1021.8 - 0.0
22/07:00pm 14.1 13.0 10.7 80 1.8 SSE 7 7 4 4 1021.7 - 0.0
22/06:30pm 14.8 12.5 10.6 76 2.2 S 13 13 7 7 1021.4 - 0.0
22/06:00pm 15.2 12.9 10.5 73 2.5 S 13 13 7 7 1021.0 1021.0 0.0
22/05:30pm 16.6 14.3 10.4 67 3.3 S 13 15 7 8 1020.8 - 0.0
22/05:00pm 17.7 15.1 9.5 58 4.3 S 13 17 7 9 1020.7 - 0.0
22/04:30pm 18.5 15.4 8.9 53 5.0 SSW 15 19 8 10 1020.3 - 0.0
22/04:00pm 19.2 15.0 7.4 46 6.0 SSW 19 22 10 12 1020.2 - 0.0
22/03:30pm 19.7 15.8 8.6 48 5.8 SSW 19 24 10 13 1020.0 - 0.0
22/03:00pm 20.4 16.4 8.1 45 6.4 SW 19 26 10 14 1019.9 1019.9 0.0
22/02:30pm 20.6 16.9 7.8 43 6.6 SW 17 22 9 12 1019.5 - 0.0
22/02:00pm 19.5 15.8 6.5 42 6.5 SSW 15 22 8 12 1019.5 - 0.0
22/01:30pm 20.0 17.0 5.9 39 7.0 ESE 11 17 6 9 1019.6 - 0.0
22/01:00pm 19.7 17.4 5.5 39 7.0 S 7 13 4 7 1019.8 - 0.0
22/12:30pm 19.6 17.8 7.2 44 6.3 WSW 6 9 3 5 1020.3 - 0.0
22/12:00pm 20.1 18.6 8.3 46 6.1 NNE 6 11 3 6 1020.7 1020.7 0.0
22/11:30am 19.2 17.4 8.1 48 5.7 SSE 7 13 4 7 1021.0 - 0.0
22/11:00am 19.3 18.0 9.2 52 5.3 NNE 6 13 3 7 1021.0 - 0.0
22/10:30am 18.2 15.6 10.7 61 4.0 NE 15 24 8 13 1021.0 - 0.0
22/10:00am 17.3 15.3 11.5 68 3.2 NNE 13 19 7 10 1021.2 - 0.0
22/09:30am 15.6 14.0 11.6 77 2.2 N 11 13 6 7 1021.3 - 0.0
22/09:00am 15.1 12.8 11.8 81 1.8 NNE 15 19 8 10 1020.9 1020.9 10.6
22/08:30am 13.9 11.1 11.3 84 1.4 NNE 17 20 9 11 1020.6 - 10.6
22/08:00am 13.4 10.2 11.4 88 1.1 NNE 19 22 10 12 1019.9 - 10.6
22/07:30am 12.6 9.4 11.1 91 0.8 NNE 19 20 10 11 1019.4 - 10.6
22/07:00am 12.7 10.2 11.2 91 0.8 NNE 15 20 8 11 1019.1 - 10.6
22/06:30am 12.4 9.2 11.1 92 0.7 NNE 19 20 10 11 1018.6 - 10.6
22/06:00am 12.2 9.3 11.1 93 0.6 NNE 17 20 9 11 1018.4 1018.4 10.6
22/05:30am 12.3 9.0 11.0 92 0.7 NNE 19 22 10 12 1018.2 - 10.6
22/05:00am 12.0 9.1 10.9 93 0.6 NNE 17 20 9 11 1018.0 - 10.6
22/04:30am 12.3 9.8 11.0 92 0.7 NNE 15 17 8 9 1017.7 - 10.6
22/04:00am 12.5 10.0 11.1 91 0.7 NNE 15 17 8 9 1017.7 - 10.6
22/03:30am 12.9 10.8 11.2 89 0.9 NNE 13 15 7 8 1017.5 - 10.6
22/03:00am 13.6 12.3 11.2 85 1.3 NNE 9 11 5 6 1017.3 1017.2 10.6
22/02:30am 14.0 12.8 11.6 85 1.3 E 9 11 5 6 1017.1 - 10.6
22/02:00am 14.1 12.1 11.5 84 1.4 ESE 13 15 7 8 1017.0 - 10.6
22/01:30am 13.9 11.7 10.7 81 1.7 SE 13 17 7 9 1017.0 - 10.6
22/01:00am 15.0 12.5 10.9 76 2.2 S 15 20 8 11 1017.0 - 10.6
22/12:30am 14.7 12.8 11.7 82 1.6 SSE 13 17 7 9 1016.9 - 10.6
22/12:00am 12.4 11.1 10.0 85 1.2 NE 7 9 4 5 1016.6 1016.5 10.6
 
Date/Time
WST
Temp
°C
App
Temp
°C
Dew
Point
°C
Rel
Hum
%
Delta-T
°C
Wind Press
QNH
hPa
Press
MSL
hPa
Rain since
9am
mm
Dir  Spd
km/h
Gust
km/h
Spd
kts
Gust
kts
21/11:30pm 13.5 12.2 10.0 79 1.8 ENE 7 7 4 4 1016.6 - 10.6
21/11:00pm 14.2 12.1 9.6 74 2.4 SSW 11 15 6 8 1016.6 - 10.6
21/10:30pm 14.9 12.3 9.5 70 2.8 SSW 13 15 7 8 1016.5 - 10.6
21/10:00pm 15.7 13.1 10.7 72 2.7 SSW 15 19 8 10 1016.3 - 10.6
21/09:30pm 16.1 13.0 10.2 68 3.1 SW 17 20 9 11 1016.0 - 10.6
21/09:00pm 15.8 13.5 10.5 71 2.8 SSW 13 17 7 9 1015.7 1015.6 10.6
21/08:30pm 15.8 13.6 10.8 72 2.7 SW 13 17 7 9 1015.2 - 10.6
21/08:00pm 16.1 13.6 10.9 71 2.8 SSW 15 17 8 9 1014.8 - 10.6
21/07:30pm 17.2 13.8 10.4 64 3.6 SSW 19 28 10 15 1014.4 - 10.6
21/07:00pm 16.4 14.1 10.6 68 3.1 SSW 13 15 7 8 1014.0 - 10.6
21/06:30pm 16.6 14.0 10.6 67 3.2 SW 15 17 8 9 1013.6 - 10.6
21/06:00pm 17.7 14.5 11.1 65 3.6 SSW 19 24 10 13 1013.2 1013.1 10.6
21/05:30pm 18.1 14.9 11.4 65 3.7 SSW 19 24 10 13 1012.8 - 10.6
21/05:00pm 18.3 15.1 12.0 66 3.5 SSW 20 30 11 16 1012.5 - 10.6
21/04:30pm 19.2 15.4 11.2 60 4.4 SW 22 30 12 16 1012.1 - 10.6
21/04:00pm 19.5 14.7 11.7 60 4.3 SSW 28 37 15 20 1011.9 - 10.6
21/03:30pm 19.4 15.4 11.9 62 4.2 SW 24 35 13 19 1011.6 - 10.6
21/03:00pm 20.1 15.4 10.8 55 5.1 SW 26 35 14 19 1011.3 1011.2 10.6
21/02:30pm 20.2 15.1 10.5 53 5.3 SW 28 39 15 21 1011.0 - 10.6
21/02:00pm 19.3 15.0 11.9 62 4.1 SW 26 41 14 22 1010.9 - 10.6
21/01:30pm 19.5 14.2 11.3 59 4.5 SW 30 39 16 21 1010.8 - 10.6
21/01:00pm 18.9 15.1 12.5 66 3.6 SW 24 35 13 19 1010.9 - 10.6
21/12:30pm 17.6 16.1 14.3 81 1.9 SSW 15 20 8 11 1011.2 - 10.6
21/12:18pm 17.2 14.8 14.4 83 1.6 SW 20 28 11 15 1011.3 - 10.6
21/12:09pm 16.8 14.0 15.3 91 0.9 WSW 24 35 13 19 1011.3 - 10.6
21/12:00pm 16.7 14.3 15.5 93 0.7 WSW 22 30 12 16 1011.5 1011.4 10.6
21/11:30am 16.5 15.8 15.3 93 0.7 WNW 13 26 7 14 1011.5 - 9.8
21/11:18am 16.2 16.2 15.2 94 0.6 W 9 13 5 7 1011.6 - 9.6
21/11:00am 16.1 15.7 15.3 95 0.5 SW 11 15 6 8 1011.7 - 8.8
21/10:52am 16.2 15.1 15.2 94 0.6 SW 15 20 8 11 1011.7 - 8.4
21/10:30am 16.0 13.4 15.0 94 0.6 SW 22 26 12 14 1011.8 - 7.0
21/10:19am 16.5 15.8 15.3 93 0.7 W 13 19 7 10 1011.7 - 4.8
21/10:09am 16.7 15.6 15.4 92 0.8 W 15 19 8 10 1011.8 - 1.0
21/10:04am 16.5 15.4 15.2 92 0.8 W 15 20 8 11 1011.6 - 0.4
21/10:00am 16.7 15.2 15.4 92 0.8 W 17 28 9 15 1011.6 - 0.4
21/09:49am 16.4 12.4 15.2 93 0.7 WSW 30 48 16 26 1011.6 - 0.4
21/09:41am 16.9 11.4 14.8 87 1.2 WSW 37 50 20 27 1011.3 - 0.0
21/09:30am 17.7 12.8 15.2 85 1.5 WSW 35 46 19 25 1011.2 - 0.0
21/09:12am 18.1 13.0 14.7 80 2.0 WSW 35 54 19 29 1010.7 - 0.0
21/09:00am 18.0 12.6 15.1 83 1.7 WSW 37 50 20 27 1010.4 1010.3 1.4
21/08:52am 17.9 11.0 15.5 86 1.4 WSW 46 52 25 28 1010.3 - 1.4
21/08:47am 18.4 14.8 15.2 81 1.9 W 28 46 15 25 1010.4 - 1.4
21/08:34am 17.8 15.6 14.8 82 1.7 WNW 20 32 11 17 1010.4 - 1.4
21/08:30am 17.6 15.4 14.4 81 1.8 WNW 19 24 10 13 1010.3 - 0.8
21/08:27am 17.2 15.4 14.4 83 1.6 WNW 17 22 9 12 1010.2 - 0.8
21/08:08am 17.3 12.0 14.1 81 1.8 W 35 56 19 30 1010.3 - 0.6
21/08:06am 18.8 13.5 12.5 67 3.5 WNW 32 56 17 30 1010.1 - 0.4
21/08:00am 19.7 14.6 10.5 55 5.0 WNW 28 35 15 19 1009.8 - 0.4
21/07:30am 18.7 15.3 10.6 59 4.4 WNW 19 26 10 14 1009.6 - 0.4
21/07:00am 18.2 14.0 9.8 58 4.4 WNW 22 28 12 15 1009.4 - 0.4
21/06:30am 18.1 14.6 10.9 63 3.9 WNW 20 28 11 15 1009.3 - 0.4
21/06:00am 18.2 14.5 10.0 58 4.4 WNW 20 28 11 15 1009.2 1009.1 0.4
21/05:30am 18.0 13.6 9.1 56 4.6 W 22 30 12 16 1009.3 - 0.4
21/05:00am 18.1 13.8 9.2 56 4.7 W 22 30 12 16 1009.2 - 0.4
21/04:30am 18.1 14.1 10.3 60 4.2 WNW 22 33 12 18 1009.2 - 0.4
21/04:00am 18.1 13.4 10.7 62 4.0 W 26 37 14 20 1009.4 - 0.4
21/03:30am 17.7 13.5 9.8 60 4.2 W 22 32 12 17 1009.6 - 0.4
21/03:00am 17.5 13.5 10.4 63 3.8 WNW 22 32 12 17 1009.6 1009.5 0.4
21/02:30am 17.9 13.3 10.9 63 3.8 W 26 33 14 18 1009.9 - 0.4
21/02:00am 17.1 14.4 11.7 70 2.9 WNW 17 24 9 13 1010.1 - 0.4
21/01:30am 16.0 15.5 13.7 86 1.3 NNW 9 13 5 7 1010.4 - 0.4
21/01:00am 15.4 13.8 14.0 91 0.8 N 15 20 8 11 1010.7 - 0.4
21/12:30am 15.4 13.8 14.0 91 0.8 N 15 17 8 9 1010.9 - 0.4
21/12:01am 15.6 15.2 14.0 90 0.9 NNW 9 13 5 7 1011.3 - 0.4
21/12:00am 15.7 15.6 14.0 90 1.0 NW 7 13 4 7 1011.3 1011.2 0.4
 
Date/Time
WST
Temp
°C
App
Temp
°C
Dew
Point
°C
Rel
Hum
%
Delta-T
°C
Wind Press
QNH
hPa
Press
MSL
hPa
Rain since
9am
mm
Dir  Spd
km/h
Gust
km/h
Spd
kts
Gust
kts
20/11:43pm 15.9 14.7 14.0 88 1.1 WNW 13 20 7 11 1011.7 - 0.2
20/11:30pm 15.5 14.2 13.7 89 1.0 N 13 17 7 9 1011.5 - 0.0
20/11:00pm 15.4 14.0 13.3 87 1.2 NNE 13 17 7 9 1011.7 - 0.0
20/10:30pm 16.9 16.2 13.1 78 2.1 WNW 9 11 5 6 1012.1 - 0.0
20/10:00pm 16.6 16.6 14.1 85 1.4 N 7 9 4 5 1012.3 - 0.0
20/09:30pm 16.5 16.7 14.1 86 1.4 N 6 7 3 4 1012.5 - 0.0
20/09:00pm 16.6 16.1 13.9 84 1.5 N 9 11 5 6 1012.6 1012.5 0.0
20/08:30pm 16.6 16.1 13.8 83 1.6 N 9 11 5 6 1012.8 - 0.0
20/08:00pm 16.6 15.5 13.2 80 1.9 NNE 11 13 6 7 1012.9 - 0.0
20/07:30pm 17.6 18.5 13.0 74 2.6 CALM 0 4 0 2 1013.0 - 0.0
20/07:00pm 17.7 17.6 13.2 75 2.5 N 6 7 3 4 1012.9 - 0.0
20/06:30pm 18.2 17.9 12.8 71 3.0 WNW 6 7 3 4 1012.9 - 0.0
20/06:00pm 18.5 16.9 11.6 64 3.8 W 11 15 6 8 1012.8 1012.7 0.0
20/05:30pm 18.8 17.5 11.4 62 4.1 W 9 15 5 8 1012.8 - 0.0
20/05:00pm 19.1 16.5 10.8 58 4.5 W 15 19 8 10 1012.8 - 0.0
20/04:30pm 19.4 16.6 9.9 54 5.1 W 15 19 8 10 1012.9 - 0.0
20/04:00pm 19.8 17.3 9.7 52 5.4 W 13 19 7 10 1013.0 - 0.0
20/03:30pm 19.8 17.1 9.0 49 5.7 WSW 13 22 7 12 1013.0 - 0.0
20/03:00pm 20.4 17.9 9.6 50 5.8 WSW 13 24 7 13 1013.0 1012.9 0.0

Other Formats:

Comma delimited format used in spreadsheet applications
http://www.bom.gov.au/fwo/IDW60801/IDW60801.94403.axf

JavaScript Object Notation format (JSON) in row-major order
http://www.bom.gov.au/fwo/IDW60801/IDW60801.94403.json